createdAt,value
2019-03-10T00:00:47.989Z,79.30
2019-03-10T00:03:19.372Z,79.30
2019-03-10T00:05:49.214Z,79.10
2019-03-10T00:08:19.062Z,79.00
2019-03-10T00:10:48.834Z,79.10
2019-03-10T00:13:18.626Z,79.10
2019-03-10T00:15:48.394Z,79.00
2019-03-10T00:18:18.187Z,78.90
2019-03-10T00:20:48.098Z,78.90
2019-03-10T00:23:17.912Z,79.00
2019-03-10T00:25:47.684Z,79.10
2019-03-10T00:28:18.150Z,79.00
2019-03-10T00:30:47.940Z,78.90
2019-03-10T00:33:17.750Z,79.00
2019-03-10T00:35:47.525Z,78.80
2019-03-10T00:38:17.302Z,78.40
2019-03-10T00:41:14.131Z,78.30
2019-03-10T00:43:55.262Z,78.50
2019-03-10T00:46:56.882Z,78.40
2019-03-10T00:49:46.487Z,78.30
2019-03-10T00:52:24.904Z,78.20
2019-03-10T00:54:54.687Z,78.10
2019-03-10T00:57:24.472Z,77.90
2019-03-10T00:59:54.323Z,77.80
2019-03-10T01:02:24.095Z,77.80
2019-03-10T01:04:53.908Z,77.60
2019-03-10T01:07:23.681Z,77.40
2019-03-10T01:09:53.466Z,77.10
2019-03-10T01:12:23.303Z,77.20
2019-03-10T01:14:53.099Z,77.40
2019-03-10T01:17:23.201Z,77.40
2019-03-10T01:19:53.758Z,77.40
2019-03-10T01:22:23.523Z,77.30
2019-03-10T01:24:53.323Z,77.30
2019-03-10T01:27:23.099Z,77.50
2019-03-10T01:29:52.880Z,77.40
2019-03-10T01:32:37.086Z,77.30
2019-03-10T01:35:10.066Z,77.30
2019-03-10T01:37:39.854Z,77.30
2019-03-10T01:40:09.872Z,77.60
2019-03-10T01:42:39.672Z,77.80
2019-03-10T01:45:13.058Z,77.60
2019-03-10T01:47:42.840Z,77.40
2019-03-10T01:50:14.056Z,77.50
2019-03-10T01:52:43.841Z,77.40
2019-03-10T01:55:13.893Z,77.20
2019-03-10T01:57:43.670Z,77.40
2019-03-10T02:00:16.556Z,77.60
2019-03-10T02:02:46.410Z,77.60
2019-03-10T02:05:16.194Z,77.50
2019-03-10T02:07:45.970Z,77.50
2019-03-10T02:10:15.738Z,77.40
2019-03-10T02:12:45.528Z,77.60
2019-03-10T02:15:15.970Z,77.30
2019-03-10T02:17:45.762Z,77.40
2019-03-10T02:20:18.803Z,77.60
2019-03-10T02:22:48.588Z,77.60
2019-03-10T02:25:18.364Z,77.80
2019-03-10T02:27:48.203Z,77.90
2019-03-10T02:30:18.613Z,77.80
2019-03-10T02:32:48.470Z,77.90
2019-03-10T02:35:18.255Z,78.00
2019-03-10T02:37:48.051Z,77.80
2019-03-10T02:40:17.821Z,78.00
2019-03-10T02:42:47.602Z,77.70
2019-03-10T02:45:17.441Z,77.90
2019-03-10T02:47:47.264Z,77.90
2019-03-10T02:50:17.107Z,77.80
2019-03-10T02:52:46.885Z,77.50
2019-03-10T02:55:16.683Z,77.50
2019-03-10T02:57:46.523Z,77.40
2019-03-10T03:00:16.379Z,77.50
2019-03-10T03:02:46.258Z,77.60
2019-03-10T03:05:16.091Z,77.40
2019-03-10T03:07:45.941Z,77.10
2019-03-10T03:10:15.720Z,76.80
2019-03-10T03:12:45.490Z,76.80
2019-03-10T03:15:16.264Z,76.30
2019-03-10T03:17:46.120Z,76.00
2019-03-10T03:20:15.916Z,75.30
2019-03-10T03:22:45.683Z,75.30
2019-03-10T03:25:15.481Z,75.00
2019-03-10T03:27:45.253Z,75.70
2019-03-10T03:30:19.034Z,76.40
2019-03-10T03:32:48.847Z,77.50
2019-03-10T03:35:51.921Z,77.60
2019-03-10T03:38:24.628Z,78.00
2019-03-10T03:41:03.790Z,79.30
2019-03-10T03:43:33.562Z,79.00
2019-03-10T03:46:03.378Z,79.30
2019-03-10T03:48:33.275Z,80.30
2019-03-10T03:51:03.078Z,81.20
2019-03-10T03:53:32.922Z,81.40
2019-03-10T03:56:02.703Z,81.50
2019-03-10T03:58:32.536Z,82.70
2019-03-10T04:01:04.060Z,83.10
2019-03-10T04:03:33.828Z,83.30
2019-03-10T04:06:03.611Z,83.80
2019-03-10T04:08:33.399Z,84.00
2019-03-10T04:11:03.196Z,84.50
2019-03-10T04:13:32.982Z,85.30
2019-03-10T04:16:02.784Z,85.40
2019-03-10T04:18:32.552Z,85.30
2019-03-10T04:21:02.339Z,85.50
2019-03-10T04:23:32.130Z,85.90
2019-03-10T04:26:01.904Z,85.90
2019-03-10T04:28:31.693Z,85.90
2019-03-10T04:31:01.463Z,86.10
2019-03-10T04:33:31.251Z,86.40
2019-03-10T04:36:01.022Z,87.00
2019-03-10T04:38:30.802Z,87.70
2019-03-10T04:41:00.593Z,87.80
2019-03-10T04:43:30.376Z,87.50
2019-03-10T04:46:00.150Z,87.60
2019-03-10T04:48:29.949Z,87.60
2019-03-10T04:50:59.727Z,87.60
2019-03-10T04:53:29.522Z,88.00
2019-03-10T04:56:03.591Z,88.30
2019-03-10T04:58:35.007Z,88.20
2019-03-10T05:01:04.779Z,88.20
2019-03-10T05:03:34.558Z,88.30
2019-03-10T05:06:04.344Z,88.80
2019-03-10T05:08:34.195Z,88.30
2019-03-10T05:11:03.984Z,88.20
2019-03-10T05:13:33.758Z,88.10
2019-03-10T05:16:03.696Z,88.40
2019-03-10T05:18:34.563Z,88.30
2019-03-10T05:21:04.342Z,88.50
2019-03-10T05:23:40.871Z,88.90
2019-03-10T05:26:10.718Z,88.90
2019-03-10T05:28:43.059Z,88.80
2019-03-10T05:31:12.825Z,88.70
2019-03-10T05:33:42.687Z,89.40
2019-03-10T05:36:12.473Z,88.70
2019-03-10T05:38:42.269Z,88.60
2019-03-10T05:41:12.050Z,89.30
2019-03-10T05:43:41.835Z,89.10
2019-03-10T05:46:11.611Z,89.80
2019-03-10T05:48:41.395Z,90.00
2019-03-10T05:51:11.177Z,89.90
2019-03-10T05:53:40.941Z,89.90
2019-03-10T05:56:10.715Z,90.20
2019-03-10T05:58:40.482Z,90.50
2019-03-10T06:01:10.262Z,90.50
2019-03-10T06:03:41.112Z,90.40
2019-03-10T06:06:10.908Z,90.60
2019-03-10T06:08:40.675Z,91.20
2019-03-10T06:11:10.467Z,91.00
2019-03-10T06:13:40.236Z,91.30
2019-03-10T06:16:10.029Z,91.10
2019-03-10T06:18:39.804Z,91.20
2019-03-10T06:21:09.582Z,91.30
2019-03-10T06:23:39.350Z,91.50
2019-03-10T06:26:09.150Z,91.50
2019-03-10T06:28:38.930Z,91.60
2019-03-10T06:31:08.693Z,91.50
2019-03-10T06:33:38.474Z,91.90
2019-03-10T06:36:08.248Z,91.90
2019-03-10T06:38:38.031Z,91.80
2019-03-10T06:41:07.803Z,91.90
2019-03-10T06:43:37.588Z,92.00
2019-03-10T06:46:07.360Z,92.00
2019-03-10T06:48:37.147Z,92.10
2019-03-10T06:51:06.919Z,92.10
2019-03-10T06:53:36.688Z,92.20
2019-03-10T06:56:06.455Z,92.10
2019-03-10T06:58:36.247Z,92.10
2019-03-10T07:01:06.076Z,92.20
2019-03-10T07:03:35.860Z,92.10
2019-03-10T07:06:05.632Z,92.20
2019-03-10T07:08:35.412Z,92.20
2019-03-10T07:11:05.267Z,92.20
2019-03-10T07:13:35.052Z,92.20
2019-03-10T07:16:04.901Z,92.40
2019-03-10T07:18:34.680Z,92.40
2019-03-10T07:21:04.479Z,92.20
2019-03-10T07:23:34.255Z,92.40
2019-03-10T07:26:06.999Z,92.50
2019-03-10T07:28:44.022Z,92.70
2019-03-10T07:31:17.892Z,92.80
2019-03-10T07:33:52.303Z,92.90
2019-03-10T07:36:24.537Z,93.00
2019-03-10T07:39:07.987Z,92.90
2019-03-10T07:41:48.559Z,92.90
2019-03-10T07:44:37.943Z,92.90
2019-03-10T07:47:27.615Z,92.80
2019-03-10T07:50:04.973Z,92.60
2019-03-10T07:52:36.395Z,92.50
2019-03-10T07:55:11.199Z,92.50
2019-03-10T07:57:42.623Z,93.00
2019-03-10T08:00:19.995Z,92.90
2019-03-10T08:02:54.543Z,92.90
2019-03-10T08:05:25.959Z,92.70
2019-03-10T08:08:15.775Z,92.70
2019-03-10T08:10:47.200Z,92.80
2019-03-10T08:13:28.769Z,92.90
2019-03-10T08:16:03.143Z,92.90
2019-03-10T08:18:46.147Z,92.90
2019-03-10T08:21:29.371Z,92.80
2019-03-10T08:24:00.811Z,92.60
2019-03-10T08:26:35.203Z,92.40
2019-03-10T08:29:12.232Z,92.40
2019-03-10T08:31:43.667Z,92.40
2019-03-10T08:34:31.306Z,92.60
2019-03-10T08:37:11.812Z,92.70
2019-03-10T08:39:45.962Z,92.20
2019-03-10T08:42:20.902Z,92.20
2019-03-10T08:45:08.905Z,92.30
2019-03-10T08:47:40.315Z,92.70
2019-03-10T08:50:24.915Z,92.80
2019-03-10T08:52:57.751Z,93.00
2019-03-10T08:55:35.356Z,92.90
2019-03-10T08:58:15.499Z,92.50
2019-03-10T09:00:52.679Z,92.20
2019-03-10T09:03:40.603Z,92.10
2019-03-10T09:06:12.063Z,91.70
2019-03-10T09:08:49.672Z,91.40
2019-03-10T09:11:23.966Z,91.00
2019-03-10T09:13:58.043Z,90.60
2019-03-10T09:16:38.108Z,90.10
2019-03-10T09:19:25.564Z,88.50
2019-03-10T09:22:00.327Z,89.00
2019-03-10T09:24:48.308Z,88.30
2019-03-10T09:27:38.059Z,88.60
2019-03-10T09:30:17.992Z,89.30
2019-03-10T09:32:49.442Z,88.70
2019-03-10T09:35:20.856Z,88.70
2019-03-10T09:37:58.244Z,89.30
2019-03-10T09:40:46.250Z,90.20
2019-03-10T09:43:26.476Z,90.10
2019-03-10T09:46:00.980Z,90.00
2019-03-10T09:48:44.664Z,90.50
2019-03-10T09:51:32.360Z,90.40
2019-03-10T09:54:22.109Z,90.60
2019-03-10T09:56:56.434Z,90.70
2019-03-10T09:59:39.886Z,90.70
2019-03-10T10:02:12.208Z,90.90
2019-03-10T10:04:46.807Z,90.00
2019-03-10T10:07:21.187Z,89.50
2019-03-10T10:09:55.557Z,89.40
2019-03-10T10:12:36.207Z,89.30
2019-03-10T10:15:23.883Z,89.50
2019-03-10T10:17:55.328Z,88.70
2019-03-10T10:20:29.731Z,87.50
2019-03-10T10:23:04.177Z,87.00
2019-03-10T10:25:35.670Z,85.00
2019-03-10T10:28:11.009Z,84.10
2019-03-10T10:30:58.647Z,83.80
2019-03-10T10:33:39.959Z,84.60
2019-03-10T10:36:17.323Z,83.40
2019-03-10T10:38:48.762Z,83.00
2019-03-10T10:41:35.255Z,84.00
2019-03-10T10:44:18.531Z,82.40
2019-03-10T10:47:05.903Z,82.50
2019-03-10T10:49:43.051Z,84.00
2019-03-10T10:52:14.497Z,84.20
2019-03-10T10:54:57.895Z,85.80
2019-03-10T10:57:35.130Z,86.70
2019-03-10T11:00:09.619Z,87.10
2019-03-10T11:02:43.989Z,87.40
2019-03-10T11:05:15.562Z,87.80
2019-03-10T11:07:47.022Z,87.80
2019-03-10T11:10:36.688Z,88.30
2019-03-10T11:13:20.055Z,87.10
2019-03-10T11:16:00.590Z,86.10
2019-03-10T11:18:32.020Z,84.40
2019-03-10T11:21:06.604Z,84.10
2019-03-10T11:23:47.010Z,82.20
2019-03-10T11:26:26.947Z,80.00
2019-03-10T11:29:00.899Z,77.90
2019-03-10T11:31:37.254Z,76.90
2019-03-10T11:34:28.071Z,75.70
2019-03-10T11:37:02.082Z,75.40
2019-03-10T11:39:36.066Z,72.60
2019-03-10T11:42:07.491Z,72.60
2019-03-10T11:44:38.920Z,71.80
2019-03-10T11:47:10.343Z,72.90
2019-03-10T11:49:58.238Z,74.60
2019-03-10T11:52:29.655Z,73.80
2019-03-10T11:55:03.857Z,72.30
2019-03-10T11:57:41.304Z,71.90
2019-03-10T12:00:30.004Z,71.30
2019-03-10T12:03:04.231Z,70.00
2019-03-10T12:05:47.851Z,70.50
2019-03-10T12:08:19.293Z,70.10
2019-03-10T12:10:49.083Z,71.00
2019-03-10T12:13:18.859Z,71.70
2019-03-10T12:16:00.500Z,71.30
2019-03-10T12:18:30.287Z,70.50
2019-03-10T12:21:00.082Z,71.10
2019-03-10T12:23:29.868Z,71.10
2019-03-10T12:25:59.659Z,71.20
2019-03-10T12:28:29.468Z,71.50
2019-03-10T12:30:59.253Z,70.40
2019-03-10T12:33:29.048Z,71.90
2019-03-10T12:35:58.830Z,73.70
2019-03-10T12:38:28.629Z,73.70
2019-03-10T12:40:58.408Z,74.60
2019-03-10T12:43:28.204Z,73.60
2019-03-10T12:45:57.988Z,72.70
2019-03-10T12:48:27.794Z,73.40
2019-03-10T12:50:57.580Z,73.20
2019-03-10T12:53:27.372Z,73.50
2019-03-10T12:55:57.158Z,73.90
2019-03-10T12:58:26.952Z,73.90
2019-03-10T13:01:05.633Z,74.00
2019-03-10T13:03:28.251Z,73.80
2019-03-10T13:05:58.080Z,71.70
2019-03-10T13:08:27.882Z,70.80
2019-03-10T13:10:57.660Z,70.50
2019-03-10T13:13:27.448Z,69.10
2019-03-10T13:15:57.243Z,67.70
2019-03-10T13:18:27.041Z,66.80
2019-03-10T13:20:56.816Z,66.90
2019-03-10T13:23:26.607Z,65.30
2019-03-10T13:25:56.398Z,64.40
2019-03-10T13:28:26.176Z,63.30
2019-03-10T13:30:55.974Z,63.40
2019-03-10T13:33:25.752Z,62.60
2019-03-10T13:35:57.053Z,61.10
2019-03-10T13:38:27.094Z,59.90
2019-03-10T13:40:56.887Z,58.90
2019-03-10T13:43:26.667Z,57.40
2019-03-10T13:45:56.544Z,58.60
2019-03-10T13:48:26.360Z,59.00
2019-03-10T13:50:56.211Z,59.20
2019-03-10T13:53:25.996Z,57.00
2019-03-10T13:55:55.796Z,57.70
2019-03-10T13:58:25.575Z,56.90
2019-03-10T14:00:55.450Z,56.10
2019-03-10T14:03:25.243Z,54.10
2019-03-10T14:05:55.002Z,53.00
2019-03-10T14:08:24.783Z,50.60
2019-03-10T14:10:54.647Z,49.00
2019-03-10T14:13:24.439Z,49.10
2019-03-10T14:15:54.218Z,47.60
2019-03-10T14:18:25.087Z,46.90
2019-03-10T14:20:54.945Z,46.70
2019-03-10T14:23:24.738Z,46.30
2019-03-10T14:25:54.503Z,47.20
2019-03-10T14:28:24.303Z,47.10
2019-03-10T14:30:54.144Z,47.70
2019-03-10T14:33:23.935Z,48.40
2019-03-10T14:35:53.723Z,49.20
2019-03-10T14:38:23.511Z,49.00
2019-03-10T14:40:53.275Z,47.50
2019-03-10T14:43:23.153Z,46.50
2019-03-10T14:45:52.923Z,46.60
2019-03-10T14:48:22.761Z,47.60
2019-03-10T14:50:52.562Z,48.30
2019-03-10T14:53:22.408Z,48.90
2019-03-10T14:55:52.208Z,49.20
2019-03-10T14:58:23.044Z,49.60
2019-03-10T15:00:52.903Z,49.80
2019-03-10T15:03:22.698Z,49.90
2019-03-10T15:05:52.463Z,50.20
2019-03-10T15:08:22.239Z,50.20
2019-03-10T15:10:52.031Z,51.50
2019-03-10T15:13:22.880Z,51.90
2019-03-10T15:15:52.685Z,52.10
2019-03-10T15:18:22.466Z,52.50
2019-03-10T15:20:52.259Z,52.70
2019-03-10T15:23:22.035Z,53.30
2019-03-10T15:25:51.909Z,53.60
2019-03-10T15:28:21.675Z,53.90
2019-03-10T15:30:51.450Z,54.40
2019-03-10T15:33:21.252Z,54.80
2019-03-10T15:35:51.064Z,55.20
2019-03-10T15:38:20.894Z,55.50
2019-03-10T15:40:50.662Z,55.30
2019-03-10T15:43:20.463Z,55.50
2019-03-10T15:45:50.818Z,55.40
2019-03-10T15:48:20.595Z,55.20
2019-03-10T15:50:50.376Z,56.00
2019-03-10T15:53:20.159Z,57.20
2019-03-10T15:55:49.951Z,56.80
2019-03-10T15:58:19.741Z,57.00
2019-03-10T16:00:50.492Z,56.80
2019-03-10T16:03:20.298Z,57.40
2019-03-10T16:05:50.067Z,57.80
2019-03-10T16:08:19.879Z,58.20
2019-03-10T16:10:49.655Z,58.70
2019-03-10T16:13:19.442Z,59.20
2019-03-10T16:15:49.320Z,59.60
2019-03-10T16:18:19.106Z,60.10
2019-03-10T16:20:48.894Z,59.70
2019-03-10T16:23:18.656Z,60.80
2019-03-10T16:25:48.461Z,61.50
2019-03-10T16:28:18.215Z,61.70
2019-03-10T16:30:47.990Z,62.30
2019-03-10T16:33:17.758Z,63.20
2019-03-10T16:35:47.532Z,64.10
2019-03-10T16:38:17.313Z,64.40
2019-03-10T16:40:47.082Z,64.90
2019-03-10T16:43:16.856Z,65.30
2019-03-10T16:45:46.645Z,66.00
2019-03-10T16:48:16.407Z,66.60
2019-03-10T16:50:46.186Z,66.90
2019-03-10T16:53:15.954Z,67.10
2019-03-10T16:55:45.744Z,67.30
2019-03-10T16:58:16.580Z,67.60
2019-03-10T17:00:46.373Z,67.80
2019-03-10T17:03:16.175Z,67.60
2019-03-10T17:05:45.953Z,68.00
2019-03-10T17:08:15.724Z,69.20
2019-03-10T17:10:45.492Z,68.80
2019-03-10T17:13:15.270Z,68.60
2019-03-10T17:15:45.108Z,68.90
2019-03-10T17:18:14.896Z,68.80
2019-03-10T17:20:44.668Z,69.40
2019-03-10T17:23:14.452Z,70.30
2019-03-10T17:25:44.215Z,70.00
2019-03-10T17:28:14.012Z,69.90
2019-03-10T17:30:43.777Z,70.10
2019-03-10T17:33:13.628Z,70.80
2019-03-10T17:35:44.374Z,71.00
2019-03-10T17:38:14.156Z,71.10
2019-03-10T17:40:43.932Z,70.40
2019-03-10T17:43:13.708Z,70.50
2019-03-10T17:45:43.495Z,69.60
2019-03-10T17:48:13.365Z,69.60
2019-03-10T17:50:43.177Z,69.90
2019-03-10T17:53:13.821Z,70.20
2019-03-10T17:55:43.625Z,69.70
2019-03-10T17:58:13.514Z,69.80
2019-03-10T18:00:43.312Z,70.40
2019-03-10T18:03:13.084Z,69.50
2019-03-10T18:05:42.872Z,69.60
2019-03-10T18:08:12.635Z,67.40
2019-03-10T18:10:42.427Z,67.10
2019-03-10T18:13:12.213Z,67.00
2019-03-10T18:15:41.998Z,66.90
2019-03-10T18:18:11.762Z,67.00
2019-03-10T18:20:41.540Z,66.90
2019-03-10T18:23:11.316Z,66.40
2019-03-10T18:25:41.105Z,66.60
2019-03-10T18:28:10.864Z,65.90
2019-03-10T18:30:40.735Z,65.40
2019-03-10T18:33:10.495Z,65.40
2019-03-10T18:35:40.273Z,64.70
2019-03-10T18:38:10.043Z,64.00
2019-03-10T18:40:39.844Z,64.30
2019-03-10T18:43:09.603Z,63.10
2019-03-10T18:45:39.386Z,62.70
2019-03-10T18:48:09.164Z,62.90
2019-03-10T18:50:38.964Z,63.00
2019-03-10T18:53:08.750Z,62.60
2019-03-10T18:55:38.527Z,63.30
2019-03-10T18:58:08.379Z,63.20
2019-03-10T19:00:38.168Z,63.60
2019-03-10T19:03:07.941Z,63.40
2019-03-10T19:05:37.743Z,63.30
2019-03-10T19:08:08.111Z,62.70
2019-03-10T19:10:37.897Z,62.50
2019-03-10T19:13:07.737Z,64.90
2019-03-10T19:15:38.243Z,63.30
2019-03-10T19:18:08.021Z,63.70
2019-03-10T19:20:38.860Z,63.80
2019-03-10T19:23:08.647Z,64.00
2019-03-10T19:25:38.443Z,64.70
2019-03-10T19:28:08.245Z,65.80
2019-03-10T19:30:38.018Z,65.10
2019-03-10T19:33:07.898Z,65.00
2019-03-10T19:35:37.670Z,66.10
2019-03-10T19:38:07.459Z,67.80
2019-03-10T19:40:37.306Z,71.60
2019-03-10T19:43:07.091Z,71.60
2019-03-10T19:45:36.863Z,71.30
2019-03-10T19:48:07.196Z,72.80
2019-03-10T19:50:36.975Z,76.00
2019-03-10T19:53:06.811Z,78.00
2019-03-10T19:55:36.670Z,79.10
2019-03-10T19:58:06.431Z,80.30
2019-03-10T20:00:36.221Z,81.50
2019-03-10T20:03:06.059Z,82.40
2019-03-10T20:05:35.839Z,82.60
2019-03-10T20:08:05.608Z,83.30
2019-03-10T20:10:36.458Z,83.60
2019-03-10T20:13:06.367Z,83.80
2019-03-10T20:15:36.151Z,83.80
2019-03-10T20:18:05.945Z,83.80
2019-03-10T20:20:35.750Z,83.80
2019-03-10T20:23:05.655Z,83.10
2019-03-10T20:25:35.499Z,83.20
2019-03-10T20:28:05.275Z,83.00
2019-03-10T20:30:35.241Z,83.20
2019-03-10T20:33:05.108Z,85.00
2019-03-10T20:35:35.259Z,89.80
2019-03-10T20:38:05.087Z,91.10
2019-03-10T20:40:34.882Z,93.70
2019-03-10T20:43:04.715Z,93.30
2019-03-10T20:45:34.520Z,93.30
2019-03-10T20:48:04.304Z,93.30
2019-03-10T20:50:34.086Z,93.50
2019-03-10T20:53:04.119Z,93.60
2019-03-10T20:55:33.930Z,94.20
2019-03-10T20:58:03.780Z,94.90
2019-03-10T21:00:34.451Z,94.60
2019-03-10T21:03:04.305Z,95.40
2019-03-10T21:05:34.074Z,94.30
2019-03-10T21:08:03.864Z,94.60
2019-03-10T21:10:33.657Z,94.40
2019-03-10T21:13:03.442Z,94.10
2019-03-10T21:15:33.214Z,94.70
2019-03-10T21:18:02.988Z,95.50
2019-03-10T21:20:32.790Z,95.40
2019-03-10T21:23:02.553Z,95.50
2019-03-10T21:25:33.093Z,95.50
2019-03-10T21:28:02.881Z,95.60
2019-03-10T21:30:33.807Z,95.10
2019-03-10T21:33:03.598Z,94.50
2019-03-10T21:35:33.756Z,94.20
2019-03-10T21:38:03.703Z,94.40
2019-03-10T21:40:36.247Z,94.80
2019-03-10T21:43:06.031Z,94.80
2019-03-10T21:45:35.885Z,94.40
2019-03-10T21:48:05.674Z,94.00
2019-03-10T21:50:35.446Z,94.30
2019-03-10T21:53:06.305Z,94.90
2019-03-10T21:55:36.072Z,95.00
2019-03-10T21:58:05.953Z,94.70
2019-03-10T22:00:35.719Z,93.70
2019-03-10T22:03:05.515Z,94.30
2019-03-10T22:05:35.286Z,94.50
2019-03-10T22:08:05.142Z,94.40
2019-03-10T22:10:34.907Z,94.10
2019-03-10T22:13:04.756Z,94.10
2019-03-10T22:15:41.621Z,94.10
2019-03-10T22:18:06.083Z,93.90
2019-03-10T22:20:35.853Z,93.60
2019-03-10T22:23:05.647Z,92.60
2019-03-10T22:25:35.487Z,92.90
2019-03-10T22:28:05.257Z,92.00
2019-03-10T22:30:35.047Z,91.90
2019-03-10T22:33:04.815Z,91.70
2019-03-10T22:35:34.611Z,91.60
2019-03-10T22:38:04.443Z,91.60
2019-03-10T22:40:34.227Z,91.20
2019-03-10T22:43:03.992Z,90.80
2019-03-10T22:45:33.769Z,90.60
2019-03-10T22:48:03.603Z,87.80
2019-03-10T22:50:33.394Z,87.70
2019-03-10T22:53:03.153Z,88.40
2019-03-10T22:55:32.954Z,88.10
2019-03-10T22:58:02.695Z,87.40
2019-03-10T23:00:37.147Z,85.50
2019-03-10T23:03:08.787Z,87.30
2019-03-10T23:05:38.571Z,86.70
2019-03-10T23:08:08.332Z,85.80
2019-03-10T23:10:38.118Z,85.90
2019-03-10T23:13:07.893Z,84.70
2019-03-10T23:15:37.682Z,85.40
2019-03-10T23:18:07.518Z,84.10
2019-03-10T23:20:37.333Z,85.40
2019-03-10T23:23:07.115Z,84.10
2019-03-10T23:25:36.916Z,83.40
2019-03-10T23:28:06.731Z,83.00
2019-03-10T23:30:36.574Z,81.80
2019-03-10T23:33:06.358Z,81.60
2019-03-10T23:35:36.147Z,80.50
2019-03-10T23:38:07.053Z,81.70
2019-03-10T23:40:36.854Z,81.00
2019-03-10T23:43:06.649Z,80.60
2019-03-10T23:45:36.436Z,80.40
2019-03-10T23:48:06.231Z,80.00
2019-03-10T23:50:35.996Z,79.60
2019-03-10T23:53:05.785Z,80.10
2019-03-10T23:55:35.546Z,79.40
2019-03-10T23:58:05.340Z,79.50
